Time;durP1;ratioP1;P1;durP2;ratioP2;P2;SDS_P1;SDS_P2;PMS_P1;PMS_P2;Temp;Humidity;BMP_temperature;BMP_pressure;BME280_temperature;BME280_humidity;BME280_pressure;Samples;Min_cycle;Max_cycle;Signal;HPM_P1;HPM_P2
2023/01/09 00:00:34;;;;;;;;;;;;;;;5.29;100.00;96439.44;5118802;28;19934;-74
2023/01/09 00:03:00;;;;;;;;;;;;;;;5.33;100.00;96445.00;5118311;28;19987;-74
2023/01/09 00:05:26;;;;;;;;;;;;;;;5.20;100.00;96443.69;5097398;28;19963;-75
2023/01/09 00:07:53;;;;;;;;;;;;;;;5.27;100.00;96438.94;5115353;28;19949;-76
2023/01/09 00:10:19;;;;;;;;;;;;;;;5.20;100.00;96425.16;5100394;28;19928;-75
2023/01/09 00:12:47;;;;;;;;;;;;;;;5.09;100.00;96412.19;5118965;28;19938;-76
2023/01/09 00:15:14;;;;;;;;;;;;;;;5.15;100.00;96405.84;5097818;28;19923;-75
2023/01/09 00:17:40;;;;;;;;;;;;;;;5.12;100.00;96399.22;5096920;28;19958;-75
2023/01/09 00:20:08;;;;;;;;;;;;;;;5.26;100.00;96387.03;5098362;28;19924;-75
2023/01/09 00:22:35;;;;;;;;;;;;;;;5.19;100.00;96388.38;5119498;28;19935;-75
2023/01/09 00:25:01;;;;;;;;;;;;;;;5.08;100.00;96387.59;5107806;28;19927;-75
2023/01/09 00:27:30;;;;;;;;;;;;;;;5.07;100.00;96372.00;5115975;28;19952;-74
2023/01/09 00:29:57;;;;;;;;;;;;;;;5.19;100.00;96378.59;5115591;28;19963;-74
2023/01/09 00:32:24;;;;;;;;;;;;;;;5.18;100.00;96369.06;5119497;28;19979;-75
2023/01/09 00:34:50;;;;;;;;;;;;;;;5.13;100.00;96366.44;5119748;28;19995;-75
2023/01/09 00:37:16;;;;;;;;;;;;;;;5.21;100.00;96365.88;5116488;28;19924;-75
2023/01/09 00:39:43;;;;;;;;;;;;;;;5.43;100.00;96374.34;5097451;28;19927;-75
2023/01/09 00:42:11;;;;;;;;;;;;;;;5.56;100.00;96364.25;5099027;28;19959;-75
2023/01/09 00:44:41;;;;;;;;;;;;;;;5.55;100.00;96355.50;5118992;28;19931;-75
2023/01/09 00:47:12;;;;;;;;;;;;;;;5.69;100.00;96350.47;5098333;28;19923;-74
2023/01/09 00:49:39;;;;;;;;;;;;;;;5.81;100.00;96364.97;5115271;28;19935;-76
2023/01/09 00:52:06;;;;;;;;;;;;;;;5.89;100.00;96361.00;5116627;28;19920;-75
2023/01/09 00:54:32;;;;;;;;;;;;;;;5.91;100.00;96369.50;5105575;28;19924;-75
2023/01/09 00:56:59;;;;;;;;;;;;;;;5.93;100.00;96362.84;5117493;28;19923;-76
2023/01/09 00:59:26;;;;;;;;;;;;;;;6.02;100.00;96362.28;5096625;28;19962;-76
2023/01/09 01:01:53;;;;;;;;;;;;;;;6.06;100.00;96365.97;5114993;28;19987;-75
2023/01/09 01:09:48;;;;;;;;;;;;;;;5.81;100.00;96354.38;5116170;28;19924;-74
2023/01/09 01:12:15;;;;;;;;;;;;;;;5.82;100.00;96349.84;5118582;28;19931;-75
2023/01/09 01:14:41;;;;;;;;;;;;;;;5.89;100.00;96350.41;5100085;28;19999;-74
2023/01/09 01:17:08;;;;;;;;;;;;;;;5.88;100.00;96364.72;5098145;28;19928;-75
2023/01/09 01:19:36;;;;;;;;;;;;;;;6.01;100.00;96342.13;5096162;28;20034;-75
2023/01/09 01:22:02;;;;;;;;;;;;;;;5.93;100.00;96356.75;5098172;28;19963;-76
2023/01/09 01:24:29;;;;;;;;;;;;;;;6.00;100.00;96362.56;5106201;28;19927;-76
2023/01/09 01:26:55;;;;;;;;;;;;;;;6.10;100.00;96369.66;5100229;28;19920;-76
2023/01/09 01:29:22;;;;;;;;;;;;;;;6.05;100.00;96381.09;5096724;28;19964;-75
2023/01/09 01:31:48;;;;;;;;;;;;;;;6.06;100.00;96382.69;5114515;28;19928;-76
2023/01/09 01:34:14;;;;;;;;;;;;;;;6.12;100.00;96376.28;5099093;28;20368;-76
2023/01/09 01:36:42;;;;;;;;;;;;;;;6.12;100.00;96376.28;5100064;28;19927;-75
2023/01/09 01:39:08;;;;;;;;;;;;;;;6.01;100.00;96385.31;5098078;28;19951;-75
2023/01/09 01:41:35;;;;;;;;;;;;;;;5.99;100.00;96379.50;5114510;28;19963;-76
2023/01/09 01:44:02;;;;;;;;;;;;;;;6.05;100.00;96390.88;5097395;28;19924;-76
2023/01/09 01:46:29;;;;;;;;;;;;;;;6.06;100.00;96393.28;5118089;28;19928;-75
2023/01/09 01:48:59;;;;;;;;;;;;;;;5.98;100.00;96391.16;5118147;28;20016;-75
2023/01/09 01:51:27;;;;;;;;;;;;;;;6.17;100.00;96378.13;5096026;28;19943;-75
2023/01/09 01:54:00;;;;;;;;;;;;;;;6.14;100.00;96378.66;5119210;28;19946;-75
2023/01/09 01:56:28;;;;;;;;;;;;;;;6.12;100.00;96375.50;5106510;28;19950;-75
2023/01/09 01:58:57;;;;;;;;;;;;;;;6.18;100.00;96369.91;5108021;28;19992;-75
2023/01/09 02:01:25;;;;;;;;;;;;;;;6.29;100.00;96354.72;5114699;28;19935;-75
2023/01/09 02:03:53;;;;;;;;;;;;;;;6.28;100.00;96361.13;5096197;28;20713;-76
2023/01/09 02:06:19;;;;;;;;;;;;;;;6.23;100.00;96351.31;5099768;28;19983;-76
2023/01/09 02:08:46;;;;;;;;;;;;;;;6.11;100.00;96356.16;5101928;28;20388;-75
2023/01/09 02:11:16;;;;;;;;;;;;;;;6.11;100.00;96347.41;5119481;28;19991;-76
2023/01/09 02:13:43;;;;;;;;;;;;;;;6.01;100.00;96358.81;5100065;28;19970;-76
2023/01/09 02:16:15;;;;;;;;;;;;;;;6.02;100.00;96355.13;5102246;28;19924;-76
2023/01/09 02:18:46;;;;;;;;;;;;;;;5.92;100.00;96353.31;5103237;28;19974;-76
2023/01/09 02:21:18;;;;;;;;;;;;;;;5.63;100.00;96349.66;5101085;28;19949;-76
2023/01/09 02:24:06;;;;;;;;;;;;;;;5.75;100.00;96358.13;5102080;27;19977;-75
2023/01/09 02:26:47;;;;;;;;;;;;;;;5.75;100.00;96360.78;5118137;28;19920;-75
2023/01/09 02:29:37;;;;;;;;;;;;;;;5.71;100.00;96359.72;5102287;28;19927;-75
2023/01/09 02:32:10;;;;;;;;;;;;;;;5.35;100.00;96339.69;5120170;28;20201;-75
2023/01/09 02:34:42;;;;;;;;;;;;;;;5.31;100.00;96347.34;5099817;28;19986;-75
2023/01/09 02:37:11;;;;;;;;;;;;;;;5.24;100.00;96340.75;5119698;28;19920;-75
2023/01/09 02:39:42;;;;;;;;;;;;;;;5.20;100.00;96337.81;5103153;28;19966;-75
2023/01/09 02:42:10;;;;;;;;;;;;;;;5.35;100.00;96334.38;5100874;28;19924;-75
2023/01/09 02:44:37;;;;;;;;;;;;;;;5.19;100.00;96340.75;5119571;28;19948;-75
2023/01/09 02:47:04;;;;;;;;;;;;;;;5.10;100.00;96345.81;5101582;28;19935;-75
2023/01/09 02:49:34;;;;;;;;;;;;;;;5.03;100.00;96339.19;5102779;28;19959;-75
2023/01/09 02:52:08;;;;;;;;;;;;;;;5.03;100.00;96324.09;5102032;28;19919;-75
2023/01/09 02:54:44;;;;;;;;;;;;;;;5.02;100.00;96333.09;5107091;28;19931;-75
2023/01/09 02:57:15;;;;;;;;;;;;;;;5.00;100.00;96315.91;5100283;28;19940;-75
2023/01/09 02:59:53;;;;;;;;;;;;;;;5.09;100.00;96325.69;5098941;28;19920;-75
2023/01/09 03:02:33;;;;;;;;;;;;;;;5.19;100.00;96327.53;5120904;28;20634;-75
2023/01/09 03:05:07;;;;;;;;;;;;;;;5.15;100.00;96329.13;5122697;28;19941;-75
2023/01/09 03:07:36;;;;;;;;;;;;;;;5.30;100.00;96337.81;5101662;28;19920;-75
2023/01/09 03:10:08;;;;;;;;;;;;;;;5.46;100.00;96335.94;5103073;28;19924;-77
2023/01/09 03:12:35;;;;;;;;;;;;;;;5.28;100.00;96337.31;5104567;28;20006;-76
2023/01/09 03:15:04;;;;;;;;;;;;;;;5.13;100.00;96325.94;5101961;28;20070;-75
2023/01/09 03:17:37;;;;;;;;;;;;;;;5.08;100.00;96328.59;5099067;28;19935;-76
2023/01/09 03:20:07;;;;;;;;;;;;;;;5.20;100.00;96324.59;5099708;28;19924;-75
2023/01/09 03:22:33;;;;;;;;;;;;;;;4.92;100.00;96314.56;5102360;28;19997;-75
2023/01/09 03:25:00;;;;;;;;;;;;;;;5.09;100.00;96320.38;5106874;28;20624;-75
2023/01/09 03:27:26;;;;;;;;;;;;;;;4.97;100.00;96324.38;5098686;28;19924;-75
2023/01/09 03:29:55;;;;;;;;;;;;;;;5.03;100.00;96320.66;5098424;28;20506;-75
2023/01/09 03:32:21;;;;;;;;;;;;;;;5.08;100.00;96324.09;5100672;28;19924;-75
2023/01/09 03:34:48;;;;;;;;;;;;;;;5.12;100.00;96334.94;5098625;28;19939;-75
2023/01/09 03:37:15;;;;;;;;;;;;;;;5.18;100.00;96329.38;5102321;28;19931;-75
2023/01/09 03:39:42;;;;;;;;;;;;;;;5.33;100.00;96332.00;5123180;28;19919;-76
2023/01/09 03:42:08;;;;;;;;;;;;;;;5.24;100.00;96344.19;5106737;28;20007;-76
2023/01/09 03:44:35;;;;;;;;;;;;;;;5.35;100.00;96344.97;5104559;28;19924;-76
2023/01/09 03:47:01;;;;;;;;;;;;;;;5.30;100.00;96348.41;5105884;28;19920;-76
2023/01/09 03:49:30;;;;;;;;;;;;;;;5.13;100.00;96342.63;5107979;28;19919;-76
2023/01/09 03:51:56;;;;;;;;;;;;;;;5.04;100.00;96343.41;5108243;28;20036;-76
2023/01/09 03:54:24;;;;;;;;;;;;;;;5.06;100.00;96341.28;5128178;27;19927;-76
2023/01/09 03:56:50;;;;;;;;;;;;;;;5.09;100.00;96349.50;5123993;28;20058;-76
2023/01/09 03:59:17;;;;;;;;;;;;;;;5.13;100.00;96342.63;5101424;28;19923;-76
2023/01/09 04:01:43;;;;;;;;;;;;;;;5.30;100.00;96343.13;5117153;28;19928;-76
2023/01/09 04:04:10;;;;;;;;;;;;;;;5.29;100.00;96346.81;5118530;28;19928;-76
2023/01/09 04:06:36;;;;;;;;;;;;;;;5.30;100.00;96342.31;5119717;28;19924;-76
2023/01/09 04:09:02;;;;;;;;;;;;;;;5.28;100.00;96345.25;5118514;28;19931;-76
2023/01/09 04:11:30;;;;;;;;;;;;;;;5.36;100.00;96342.03;5116286;28;19924;-76
2023/01/09 04:13:56;;;;;;;;;;;;;;;5.26;100.00;96342.06;5097701;28;19920;-76
2023/01/09 04:16:23;;;;;;;;;;;;;;;5.28;100.00;96339.94;5101565;28;19991;-76
2023/01/09 04:18:49;;;;;;;;;;;;;;;5.23;100.00;96344.47;5122095;28;19956;-76
2023/01/09 04:21:16;;;;;;;;;;;;;;;5.17;100.00;96345.53;5100049;28;19928;-75
2023/01/09 04:23:44;;;;;;;;;;;;;;;5.21;100.00;96350.00;5100596;27;19924;-76
2023/01/09 04:26:10;;;;;;;;;;;;;;;5.35;100.00;96356.31;5103269;28;20035;-76
2023/01/09 04:28:38;;;;;;;;;;;;;;;5.34;100.00;96354.75;5135723;27;19954;-76
2023/01/09 04:31:04;;;;;;;;;;;;;;;5.33;100.00;96371.69;5099241;28;19923;-75
2023/01/09 04:33:31;;;;;;;;;;;;;;;5.38;100.00;96369.03;5097858;28;20067;-75
2023/01/09 04:35:57;;;;;;;;;;;;;;;5.20;100.00;96366.94;5097120;28;19949;-75
2023/01/09 04:38:25;;;;;;;;;;;;;;;5.12;100.00;96370.13;5100975;28;19952;-76
2023/01/09 04:40:52;;;;;;;;;;;;;;;5.30;100.00;96372.22;5134872;27;19923;-75
2023/01/09 04:43:18;;;;;;;;;;;;;;;5.48;100.00;96370.88;5098027;28;19947;-75
2023/01/09 04:45:46;;;;;;;;;;;;;;;5.33;100.00;96366.41;5115594;28;20615;-76
2023/01/09 04:48:12;;;;;;;;;;;;;;;5.33;100.00;96374.34;5117718;28;19955;-76
2023/01/09 04:50:39;;;;;;;;;;;;;;;5.29;100.00;96378.56;5100900;28;19924;-76
2023/01/09 04:53:05;;;;;;;;;;;;;;;5.10;100.00;96380.19;5099358;28;19999;-75
2023/01/09 04:55:32;;;;;;;;;;;;;;;5.20;100.00;96374.88;5121081;27;19991;-75
2023/01/09 04:57:58;;;;;;;;;;;;;;;5.09;100.00;96386.53;5115464;28;19957;-75
2023/01/09 05:00:24;;;;;;;;;;;;;;;5.01;100.00;96387.06;5100380;28;19991;-75
2023/01/09 05:02:52;;;;;;;;;;;;;;;4.88;100.00;96382.31;5118655;28;19995;-75
2023/01/09 05:05:18;;;;;;;;;;;;;;;4.89;100.00;96381.22;5099437;28;19920;-74
2023/01/09 05:07:45;;;;;;;;;;;;;;;4.91;100.00;96392.34;5098051;28;19935;-75
2023/01/09 05:10:11;;;;;;;;;;;;;;;4.93;100.00;96390.22;5098917;28;19928;-75
2023/01/09 05:12:38;;;;;;;;;;;;;;;4.85;100.00;96394.22;5099813;28;20010;-75
2023/01/09 05:15:06;;;;;;;;;;;;;;;4.84;100.00;96403.19;5098930;28;19987;-75
2023/01/09 05:17:32;;;;;;;;;;;;;;;4.81;100.00;96408.19;5096074;28;19970;-75
2023/01/09 05:20:00;;;;;;;;;;;;;;;5.02;100.00;96409.00;5096970;28;19963;-75
2023/01/09 05:22:26;;;;;;;;;;;;;;;4.95;100.00;96404.00;5099945;28;20213;-75
2023/01/09 05:24:53;;;;;;;;;;;;;;;4.80;100.00;96403.97;5106036;28;19924;-75
2023/01/09 05:27:19;;;;;;;;;;;;;;;4.88;100.00;96419.34;5096727;28;19935;-75
2023/01/09 05:29:46;;;;;;;;;;;;;;;5.01;100.00;96416.19;5097296;28;19936;-75
2023/01/09 05:32:12;;;;;;;;;;;;;;;4.93;100.00;96424.63;5099474;28;19920;-75
2023/01/09 05:34:38;;;;;;;;;;;;;;;4.89;100.00;96424.34;5100576;28;19924;-75
2023/01/09 05:37:06;;;;;;;;;;;;;;;4.99;100.00;96410.34;5099442;28;19924;-75
2023/01/09 05:39:33;;;;;;;;;;;;;;;4.95;100.00;96419.88;5096969;28;19924;-76
2023/01/09 05:41:59;;;;;;;;;;;;;;;5.11;100.00;96426.75;5096501;28;19930;-76
2023/01/09 05:44:25;;;;;;;;;;;;;;;5.09;100.00;96436.81;5103582;28;19946;-75
2023/01/09 05:46:52;;;;;;;;;;;;;;;5.07;100.00;96435.47;5104637;28;19966;-75
2023/01/09 05:49:18;;;;;;;;;;;;;;;4.86;100.00;96446.03;5119598;28;20615;-76
2023/01/09 05:51:44;;;;;;;;;;;;;;;5.01;100.00;96447.13;5101463;28;19924;-75
2023/01/09 05:54:12;;;;;;;;;;;;;;;5.18;100.00;96455.59;5110871;27;19919;-76
2023/01/09 05:56:39;;;;;;;;;;;;;;;5.07;100.00;96460.09;5103908;28;19984;-76
2023/01/09 05:59:05;;;;;;;;;;;;;;;5.17;100.00;96465.38;5121847;28;19924;-76
2023/01/09 06:01:32;;;;;;;;;;;;;;;5.13;100.00;96460.88;5100410;28;20001;-76
2023/01/09 06:03:58;;;;;;;;;;;;;;;4.93;100.00;96459.00;5119515;28;19946;-76
2023/01/09 06:06:25;;;;;;;;;;;;;;;5.07;100.00;96468.03;5122555;28;19949;-76
2023/01/09 06:08:51;;;;;;;;;;;;;;;5.13;100.00;96482.06;5105242;28;19928;-76
2023/01/09 06:11:19;;;;;;;;;;;;;;;4.83;100.00;96473.00;5101856;28;19955;-76
2023/01/09 06:13:45;;;;;;;;;;;;;;;5.01;100.00;96476.22;5106240;28;19939;-76
2023/01/09 06:16:12;;;;;;;;;;;;;;;4.87;100.00;96473.28;5128658;28;19965;-76
2023/01/09 06:18:39;;;;;;;;;;;;;;;4.95;100.00;96477.28;5112287;28;19979;-76
2023/01/09 06:21:05;;;;;;;;;;;;;;;5.06;100.00;96484.16;5109206;28;19931;-76
2023/01/09 06:23:31;;;;;;;;;;;;;;;4.90;100.00;96475.41;5103513;28;19942;-76
2023/01/09 06:25:58;;;;;;;;;;;;;;;4.90;100.00;96480.69;5108290;28;19924;-75
2023/01/09 06:28:25;;;;;;;;;;;;;;;5.07;100.00;96480.47;5122106;28;19951;-76
2023/01/09 06:30:52;;;;;;;;;;;;;;;5.19;100.00;96483.66;5121487;28;19924;-75
2023/01/09 06:33:18;;;;;;;;;;;;;;;5.17;100.00;96485.78;5101485;28;20279;-75
2023/01/09 06:35:45;;;;;;;;;;;;;;;5.03;100.00;96488.13;5118486;28;19958;-76
2023/01/09 06:38:12;;;;;;;;;;;;;;;4.91;100.00;96477.00;5102233;28;19948;-75
2023/01/09 06:40:38;;;;;;;;;;;;;;;5.19;100.00;96484.44;5121460;28;19924;-75
2023/01/09 06:43:05;;;;;;;;;;;;;;;5.13;100.00;96493.44;5101959;28;20402;-75
2023/01/09 06:45:32;;;;;;;;;;;;;;;5.11;100.00;96484.16;5118015;28;19959;-76
2023/01/09 06:47:59;;;;;;;;;;;;;;;5.07;100.00;96485.75;5100569;28;19920;-76
2023/01/09 06:50:25;;;;;;;;;;;;;;;5.10;100.00;96472.81;5122201;28;19923;-76
2023/01/09 06:52:51;;;;;;;;;;;;;;;5.11;100.00;96471.72;5121532;28;19958;-76
2023/01/09 06:55:18;;;;;;;;;;;;;;;5.00;100.00;96462.19;5122603;27;19924;-76
2023/01/09 06:57:44;;;;;;;;;;;;;;;4.96;100.00;96465.63;5118001;28;20015;-76
2023/01/09 07:00:11;;;;;;;;;;;;;;;4.97;100.00;96473.31;5120080;28;19920;-76
2023/01/09 07:02:39;;;;;;;;;;;;;;;5.09;100.00;96484.44;5102951;28;19924;-76
2023/01/09 07:05:07;;;;;;;;;;;;;;;5.18;100.00;96493.44;5119702;28;19947;-76
2023/01/09 07:07:33;;;;;;;;;;;;;;;5.32;100.00;96499.78;5099368;28;19924;-76
2023/01/09 07:10:00;;;;;;;;;;;;;;;5.42;100.00;96510.41;5118313;28;19959;-76
2023/01/09 07:12:26;;;;;;;;;;;;;;;5.28;100.00;96504.03;5103201;28;19973;-77
2023/01/09 07:14:53;;;;;;;;;;;;;;;5.19;100.00;96497.69;5103374;28;19946;-76
2023/01/09 07:17:19;;;;;;;;;;;;;;;5.28;100.00;96504.03;5118578;28;19933;-76
2023/01/09 07:19:47;;;;;;;;;;;;;;;5.17;100.00;96518.31;5100453;28;20380;-75
2023/01/09 07:22:13;;;;;;;;;;;;;;;5.08;100.00;96511.13;5119542;28;19933;-76
2023/01/09 07:24:39;;;;;;;;;;;;;;;5.17;100.00;96517.53;5108674;28;20033;-76
2023/01/09 07:27:06;;;;;;;;;;;;;;;5.21;100.00;96527.31;5102560;28;19996;-76
2023/01/09 07:29:32;;;;;;;;;;;;;;;5.16;100.00;96537.91;5118024;28;19996;-76
2023/01/09 07:31:59;;;;;;;;;;;;;;;5.24;100.00;96540.03;5118287;28;20329;-76
2023/01/09 07:34:25;;;;;;;;;;;;;;;5.15;100.00;96541.59;5102832;28;19935;-73
2023/01/09 07:36:53;;;;;;;;;;;;;;;5.33;100.00;96549.03;5102730;28;19963;-76
2023/01/09 07:39:19;;;;;;;;;;;;;;;5.19;100.00;96555.91;5117418;28;19946;-76
2023/01/09 07:41:46;;;;;;;;;;;;;;;5.19;100.00;96563.84;5098741;28;19934;-76
2023/01/09 07:44:12;;;;;;;;;;;;;;;5.22;100.00;96570.47;5118918;28;19977;-76
2023/01/09 07:46:39;;;;;;;;;;;;;;;5.26;100.00;96572.31;5120568;28;19996;-75
2023/01/09 07:49:05;;;;;;;;;;;;;;;5.25;100.00;96575.22;5100798;28;20347;-75
2023/01/09 07:51:31;;;;;;;;;;;;;;;5.22;100.00;96573.91;5117347;28;19953;-75
2023/01/09 07:53:59;;;;;;;;;;;;;;;5.27;100.00;96583.69;5104438;27;19924;-75
2023/01/09 07:56:26;;;;;;;;;;;;;;;5.36;100.00;96588.22;5102974;28;19931;-75
2023/01/09 07:58:52;;;;;;;;;;;;;;;5.34;100.00;96597.47;5120559;28;19920;-75
2023/01/09 08:01:18;;;;;;;;;;;;;;;5.53;100.00;96606.53;5116832;28;19946;-75
2023/01/09 08:03:45;;;;;;;;;;;;;;;5.65;100.00;96611.56;5099110;28;19967;-75
2023/01/09 08:06:11;;;;;;;;;;;;;;;5.73;100.00;96621.63;5100111;28;19928;-76
2023/01/09 08:08:37;;;;;;;;;;;;;;;5.80;100.00;96622.19;5101908;28;19962;-72
2023/01/09 08:11:05;;;;;;;;;;;;;;;5.68;100.00;96625.09;5101277;28;19924;-75
2023/01/09 08:13:32;;;;;;;;;;;;;;;5.83;100.00;96626.94;5098627;28;19928;-76
2023/01/09 08:15:58;;;;;;;;;;;;;;;5.77;100.00;96633.31;5116290;28;19931;-75
2023/01/09 08:18:24;;;;;;;;;;;;;;;5.79;100.00;96641.78;5119205;28;19923;-76
2023/01/09 08:20:51;;;;;;;;;;;;;;;5.76;100.00;96639.66;5119596;28;19923;-76
2023/01/09 08:23:17;;;;;;;;;;;;;;;5.76;100.00;96650.25;5116216;28;19955;-76
2023/01/09 08:25:44;;;;;;;;;;;;;;;5.91;100.00;96645.03;5121383;27;19924;-76
2023/01/09 08:28:11;;;;;;;;;;;;;;;5.88;100.00;96653.50;5099410;28;19966;-76
2023/01/09 08:30:38;;;;;;;;;;;;;;;5.94;100.00;96657.75;5118948;28;19963;-76
2023/01/09 08:33:05;;;;;;;;;;;;;;;5.97;100.00;96654.56;5100058;28;19924;-74
2023/01/09 08:35:31;;;;;;;;;;;;;;;6.09;100.00;96675.50;5097672;28;19924;-75
2023/01/09 08:37:57;;;;;;;;;;;;;;;6.03;100.00;96658.81;5116068;28;19924;-76
2023/01/09 08:40:24;;;;;;;;;;;;;;;6.07;100.00;96664.34;5119311;28;19939;-76
2023/01/09 08:48:20;;;;;;;;;;;;;;;5.88;100.00;96677.34;5119751;28;19955;-75
2023/01/09 08:50:46;;;;;;;;;;;;;;;6.11;100.00;96687.41;5102103;28;20321;-75
2023/01/09 08:53:14;;;;;;;;;;;;;;;6.13;100.00;96677.34;5117811;28;19962;-75
2023/01/09 08:55:40;;;;;;;;;;;;;;;6.23;100.00;96685.31;5121527;27;19924;-75
2023/01/09 08:58:07;;;;;;;;;;;;;;;6.23;100.00;96685.31;5099507;28;19924;-75
2023/01/09 09:00:33;;;;;;;;;;;;;;;6.29;100.00;96683.44;5120141;28;19927;-76
2023/01/09 09:03:01;;;;;;;;;;;;;;;6.19;100.00;96688.75;5119593;28;19950;-76
2023/01/09 09:05:28;;;;;;;;;;;;;;;6.00;100.00;96685.03;5118799;28;19960;-76
2023/01/09 09:07:55;;;;;;;;;;;;;;;6.16;100.00;96692.72;5121949;28;19970;-76
2023/01/09 09:10:23;;;;;;;;;;;;;;;6.12;100.00;96702.28;5104998;28;19959;-76
2023/01/09 09:12:50;;;;;;;;;;;;;;;6.19;100.00;96710.75;5123779;28;19963;-76
2023/01/09 09:15:22;;;;;;;;;;;;;;;6.11;100.00;96707.81;5108539;28;19990;-76
2023/01/09 09:17:49;;;;;;;;;;;;;;;6.19;100.00;96725.88;5108276;28;19930;-76
2023/01/09 09:20:17;;;;;;;;;;;;;;;6.18;100.00;96717.13;5099076;28;19924;-76
2023/01/09 09:22:45;;;;;;;;;;;;;;;6.27;100.00;96723.50;5096948;28;19955;-76
2023/01/09 09:25:11;;;;;;;;;;;;;;;6.07;100.00;96727.94;5126241;27;19941;-75
2023/01/09 09:27:38;;;;;;;;;;;;;;;6.21;100.00;96729.06;5114659;28;19966;-75
2023/01/09 09:30:05;;;;;;;;;;;;;;;6.16;100.00;96726.41;5097636;28;19924;-75
2023/01/09 09:32:31;;;;;;;;;;;;;;;6.09;100.00;96728.50;5099995;28;19924;-75
2023/01/09 09:34:58;;;;;;;;;;;;;;;6.05;100.00;96720.28;5117867;28;20060;-75
2023/01/09 09:37:25;;;;;;;;;;;;;;;6.13;100.00;96732.22;5114889;28;19932;-75
2023/01/09 09:39:52;;;;;;;;;;;;;;;6.18;100.00;96742.81;5114660;28;19931;-75
2023/01/09 09:45:23;;;;;;;;;;;;;;;6.22;100.00;96736.72;5131175;27;19928;-75
2023/01/09 09:47:55;;;;;;;;;;;;;;;6.32;100.00;96725.34;5096534;28;19951;-75
2023/01/09 09:50:27;;;;;;;;;;;;;;;6.53;100.00;96722.41;5096797;28;19928;-76
2023/01/09 09:52:59;;;;;;;;;;;;;;;6.32;100.00;96726.13;5096559;28;19928;-76
2023/01/09 09:55:29;;;;;;;;;;;;;;;6.14;100.00;96729.31;5120550;28;19924;-75
2023/01/09 09:57:58;;;;;;;;;;;;;;;6.20;100.00;96743.34;5114421;28;19995;-75
2023/01/09 10:00:25;;;;;;;;;;;;;;;6.15;100.00;96738.84;5096594;28;19924;-75
2023/01/09 10:02:54;;;;;;;;;;;;;;;6.31;100.00;96737.78;5096374;28;19920;-75
2023/01/09 10:05:24;;;;;;;;;;;;;;;6.51;100.00;96735.16;5117976;28;19966;-75
2023/01/09 10:07:52;;;;;;;;;;;;;;;6.42;100.00;96726.16;5118200;28;19927;-75
2023/01/09 10:10:27;;;;;;;;;;;;;;;6.48;100.00;96719.78;5096841;28;19936;-76
2023/01/09 10:12:54;;;;;;;;;;;;;;;6.25;100.00;96724.81;5114648;28;20015;-76
2023/01/09 10:15:26;;;;;;;;;;;;;;;6.34;100.00;96739.94;5099485;28;19945;-76
2023/01/09 10:17:59;;;;;;;;;;;;;;;6.22;100.00;96731.41;5118315;28;19966;-76
2023/01/09 10:20:36;;;;;;;;;;;;;;;6.27;100.00;96744.69;5113102;28;19943;-76
2023/01/09 10:23:06;;;;;;;;;;;;;;;6.45;100.00;96746.03;5115124;28;19959;-76
2023/01/09 10:25:41;;;;;;;;;;;;;;;6.38;100.00;96750.78;5124203;28;19928;-76
2023/01/09 10:28:17;;;;;;;;;;;;;;;6.26;100.00;96737.78;5116001;28;19935;-76
2023/01/09 10:30:47;;;;;;;;;;;;;;;6.48;100.00;96746.31;5121402;28;19963;-76
2023/01/09 10:33:24;;;;;;;;;;;;;;;6.38;100.00;96748.94;5118972;28;19962;-76
2023/01/09 10:36:08;;;;;;;;;;;;;;;6.22;100.00;96749.97;5100292;28;20713;-76
2023/01/09 10:38:38;;;;;;;;;;;;;;;6.34;100.00;96752.41;5106643;28;19970;-75
2023/01/09 10:41:08;;;;;;;;;;;;;;;6.44;100.00;96747.09;5092135;28;19955;-76
2023/01/09 10:43:39;;;;;;;;;;;;;;;6.26;100.00;96756.34;5100307;28;19924;-76
2023/01/09 10:46:09;;;;;;;;;;;;;;;6.29;100.00;96762.97;5108292;28;19955;-76
2023/01/09 10:48:37;;;;;;;;;;;;;;;6.36;100.00;96743.13;5099703;28;19931;-76
2023/01/09 10:51:05;;;;;;;;;;;;;;;6.53;100.00;96742.06;5118836;28;19931;-76
2023/01/09 10:53:34;;;;;;;;;;;;;;;6.55;100.00;96738.09;5103170;28;19962;-75
2023/01/09 10:56:03;;;;;;;;;;;;;;;6.67;100.00;96727.19;5105906;28;19932;-76
2023/01/09 10:58:31;;;;;;;;;;;;;;;6.51;100.00;96723.75;5103208;28;19924;-76
2023/01/09 11:01:00;;;;;;;;;;;;;;;6.41;100.00;96729.06;5102595;28;19931;-76
2023/01/09 11:03:27;;;;;;;;;;;;;;;6.37;100.00;96730.66;5099910;28;20701;-76
2023/01/09 11:05:55;;;;;;;;;;;;;;;6.55;100.00;96734.63;5100311;28;19946;-76
2023/01/09 11:08:24;;;;;;;;;;;;;;;6.32;100.00;96735.94;5102578;28;20027;-76
2023/01/09 11:10:51;;;;;;;;;;;;;;;6.65;100.00;96745.25;5102557;28;20325;-76
2023/01/09 11:13:20;;;;;;;;;;;;;;;6.53;100.00;96754.25;5099594;28;19927;-75
2023/01/09 11:15:58;;;;;;;;;;;;;;;6.55;100.00;96753.19;5117248;28;19932;-75
2023/01/09 11:18:24;;;;;;;;;;;;;;;6.70;100.00;96755.84;5117000;28;19943;-76
2023/01/09 11:20:51;;;;;;;;;;;;;;;6.56;100.00;96746.84;5117452;28;19991;-76
2023/01/09 11:23:28;;;;;;;;;;;;;;;6.58;100.00;96750.00;5119826;28;19931;-76
2023/01/09 11:25:56;;;;;;;;;;;;;;;6.64;100.00;96739.16;5105609;28;19924;-76
2023/01/09 11:28:22;;;;;;;;;;;;;;;6.43;100.00;96738.34;5108582;28;19956;-76
2023/01/09 11:30:55;;;;;;;;;;;;;;;6.71;100.00;96733.56;5090436;28;19924;-75
2023/01/09 11:33:23;;;;;;;;;;;;;;;6.61;100.00;96733.56;5108646;28;19928;-76
2023/01/09 11:35:58;;;;;;;;;;;;;;;6.73;100.00;96747.34;5098558;28;19940;-76
2023/01/09 11:38:25;;;;;;;;;;;;;;;6.48;100.00;96740.19;5117126;28;19948;-76
2023/01/09 11:40:52;;;;;;;;;;;;;;;6.57;100.00;96737.81;5117898;28;19920;-76
2023/01/09 11:43:20;;;;;;;;;;;;;;;6.48;100.00;96748.94;5103143;28;19931;-76
2023/01/09 11:45:50;;;;;;;;;;;;;;;6.50;100.00;96752.13;5104162;28;19924;-76
2023/01/09 11:48:27;;;;;;;;;;;;;;;6.64;100.00;96746.31;5119520;28;19928;-76
2023/01/09 11:50:54;;;;;;;;;;;;;;;6.91;100.00;96755.56;5118400;28;19967;-76
2023/01/09 11:53:21;;;;;;;;;;;;;;;6.77;100.00;96737.81;5101765;28;19987;-76
2023/01/09 11:55:49;;;;;;;;;;;;;;;6.63;100.00;96740.19;5105679;28;19952;-76
2023/01/09 11:58:17;;;;;;;;;;;;;;;6.59;100.00;96736.50;5119189;28;19931;-75
2023/01/09 12:00:48;;;;;;;;;;;;;;;6.59;100.00;96738.34;5120066;28;19938;-76
2023/01/09 12:03:22;;;;;;;;;;;;;;;6.87;100.00;96749.19;5117554;28;19950;-75
2023/01/09 12:05:54;;;;;;;;;;;;;;;6.74;100.00;96738.34;5117214;28;19959;-76
2023/01/09 12:08:35;;;;;;;;;;;;;;;6.71;100.00;96738.88;5120257;28;19959;-75
2023/01/09 12:11:16;;;;;;;;;;;;;;;6.81;100.00;96746.81;5099936;28;19924;-76
2023/01/09 12:13:49;;;;;;;;;;;;;;;6.78;100.00;96745.50;5095826;28;19928;-76
2023/01/09 12:16:20;;;;;;;;;;;;;;;6.62;100.00;96749.22;5118898;28;20145;-76
2023/01/09 12:18:52;;;;;;;;;;;;;;;6.70;100.00;96750.53;5119926;28;19927;-75
2023/01/09 12:21:32;;;;;;;;;;;;;;;6.62;100.00;96751.88;5116850;28;19925;-76
2023/01/09 12:24:03;;;;;;;;;;;;;;;6.75;100.00;96747.88;5121788;27;20442;-75
2023/01/09 12:26:31;;;;;;;;;;;;;;;6.70;100.00;96754.00;5101363;28;19927;-75
2023/01/09 12:29:12;;;;;;;;;;;;;;;6.84;100.00;96755.03;5119753;28;19924;-75
2023/01/09 12:31:44;;;;;;;;;;;;;;;6.69;100.00;96752.38;5095333;28;19997;-75
2023/01/09 12:34:21;;;;;;;;;;;;;;;6.85;100.00;96758.50;5118080;28;19963;-76
2023/01/09 12:36:53;;;;;;;;;;;;;;;6.71;100.00;96749.50;5101400;28;20574;-76
2023/01/09 12:39:27;;;;;;;;;;;;;;;6.70;100.00;96759.31;5097300;28;23080;-75
2023/01/09 12:42:01;;;;;;;;;;;;;;;6.65;100.00;96754.00;5097771;28;19924;-75
2023/01/09 12:44:41;;;;;;;;;;;;;;;6.62;100.00;96751.88;5107564;28;19924;-74
2023/01/09 12:47:17;;;;;;;;;;;;;;;6.92;100.00;96759.81;5108625;28;19924;-75
2023/01/09 12:49:47;;;;;;;;;;;;;;;6.80;100.00;96759.31;5099365;28;19924;-75
2023/01/09 12:52:19;;;;;;;;;;;;;;;6.76;100.00;96752.94;5123922;28;19950;-75
2023/01/09 12:54:46;;;;;;;;;;;;;;;6.70;100.00;96758.50;5105107;28;19920;-75
2023/01/09 12:57:15;;;;;;;;;;;;;;;6.67;100.00;96764.34;5100578;28;19959;-75
2023/01/09 12:59:43;;;;;;;;;;;;;;;6.69;100.00;96762.22;5119943;28;19951;-75
2023/01/09 13:02:16;;;;;;;;;;;;;;;6.72;100.00;96770.44;5117828;28;19924;-76
2023/01/09 13:04:48;;;;;;;;;;;;;;;6.69;100.00;96764.84;5097928;28;19920;-75
2023/01/09 13:07:18;;;;;;;;;;;;;;;6.77;100.00;96751.88;5099773;28;19963;-76